Time,TemperatureF,DewpointF,PressureIn,WindDirection,WindDirectionDegrees,WindSpeedMPH,WindSpeedGustMPH,Humidity,HourlyPrecipIn,Conditions,Clouds,dailyrainin,SoftwareType,DateUTC
2013-04-24 00:02:00,20.0,9.0,-100.00,SW,220,3.0,4.0,61,0.00,,,-99.99,,2013-04-24 06:02:00,
2013-04-24 00:12:00,20.0,9.0,-100.00,SW,225,1.0,4.0,61,0.00,,,-99.99,,2013-04-24 06:12:00,
2013-04-24 00:21:00,19.0,9.0,-100.00,SW,230,3.0,4.0,62,0.00,,,-99.99,,2013-04-24 06:21:00,
2013-04-24 00:32:00,20.0,10.0,-100.00,SW,235,7.0,10.0,64,0.00,,,-99.99,,2013-04-24 06:32:00,
2013-04-24 00:42:00,20.0,11.0,-100.00,WSW,245,4.0,10.0,68,0.00,,,-99.99,,2013-04-24 06:42:00,
2013-04-24 00:51:00,19.0,11.0,-100.00,SW,230,7.0,11.0,69,0.00,,,-99.99,,2013-04-24 06:51:00,
2013-04-24 01:02:00,19.0,11.0,-100.00,WSW,240,10.0,14.0,72,0.00,,,-99.99,,2013-04-24 07:02:00,
2013-04-24 01:11:00,19.0,12.0,-100.00,West,265,5.0,13.0,73,0.00,,,-99.99,,2013-04-24 07:11:00,
2013-04-24 01:22:00,19.0,11.0,-100.00,SSW,205,4.0,7.0,71,0.00,,,-99.99,,2013-04-24 07:22:00,
2013-04-24 01:32:00,19.0,12.0,-100.00,SW,220,7.0,11.0,73,0.00,,,-99.99,,2013-04-24 07:32:00,
2013-04-24 01:41:00,19.0,12.0,-100.00,SW,220,4.0,7.0,73,0.00,,,-99.99,,2013-04-24 07:41:00,
2013-04-24 01:52:00,19.0,12.0,-100.00,SW,220,6.0,9.0,73,0.00,,,-99.99,,2013-04-24 07:52:00,
2013-04-24 02:01:00,19.0,12.0,-100.00,SW,225,7.0,9.0,74,0.00,,,-99.99,,2013-04-24 08:01:00,
2013-04-24 02:12:00,19.0,12.0,-100.00,SW,225,7.0,11.0,74,0.00,,,-99.99,,2013-04-24 08:12:00,
2013-04-24 02:21:00,18.0,11.0,-100.00,SW,230,7.0,10.0,74,0.00,,,-99.99,,2013-04-24 08:21:00,
2013-04-24 02:33:00,18.0,11.0,-100.00,WSW,245,9.0,12.0,74,0.00,,,-99.99,,2013-04-24 08:33:00,
2013-04-24 02:42:00,18.0,11.0,-100.00,SW,235,8.0,12.0,74,0.00,,,-99.99,,2013-04-24 08:42:00,
2013-04-24 02:52:00,18.0,11.0,-100.00,SW,230,6.0,11.0,74,0.00,,,-99.99,,2013-04-24 08:52:00,
2013-04-24 03:02:00,17.0,10.0,-100.00,WSW,255,6.0,11.0,73,0.00,,,-99.99,,2013-04-24 09:02:00,
2013-04-24 03:11:00,17.0,10.0,-100.00,West,270,3.0,8.0,72,0.00,,,-99.99,,2013-04-24 09:11:00,
2013-04-24 03:21:00,18.0,9.0,-100.00,WSW,240,6.0,10.0,70,0.00,,,-99.99,,2013-04-24 09:21:00,
2013-04-24 03:33:00,17.0,9.0,-100.00,SW,235,11.0,14.0,70,0.00,,,-99.99,,2013-04-24 09:33:00,
2013-04-24 03:42:00,17.0,9.0,-100.00,SW,225,11.0,13.0,71,0.00,,,-99.99,,2013-04-24 09:42:00,
2013-04-24 03:53:00,17.0,9.0,-100.00,SW,220,10.0,15.0,71,0.00,,,-99.99,,2013-04-24 09:53:00,
2013-04-24 04:02:00,16.0,9.0,-100.00,SW,225,14.0,17.0,73,0.00,,,-99.99,,2013-04-24 10:02:00,
2013-04-24 04:12:00,16.0,9.0,-100.00,SW,235,12.0,17.0,73,0.00,,,-99.99,,2013-04-24 10:12:00,
2013-04-24 04:22:00,18.0,10.0,-100.00,SW,220,6.0,12.0,69,0.00,,,-99.99,,2013-04-24 10:22:00,
2013-04-24 04:32:00,21.0,11.0,-100.00,WSW,240,7.0,10.0,65,0.00,,,-99.99,,2013-04-24 10:32:00,
2013-04-24 04:42:00,23.0,11.0,-100.00,WSW,250,8.0,10.0,60,0.00,,,-99.99,,2013-04-24 10:42:00,
2013-04-24 04:52:00,24.0,11.0,-100.00,WSW,250,7.0,10.0,57,0.00,,,-99.99,,2013-04-24 10:52:00,
2013-04-24 05:02:00,24.0,11.0,-100.00,WSW,245,9.0,11.0,56,0.00,,,-99.99,,2013-04-24 11:02:00,
2013-04-24 05:11:00,24.0,11.0,-100.00,WSW,250,9.0,12.0,56,0.00,,,-99.99,,2013-04-24 11:11:00,
2013-04-24 05:21:00,24.0,11.0,-100.00,WSW,250,10.0,12.0,57,0.00,,,-99.99,,2013-04-24 11:21:00,
2013-04-24 05:32:00,24.0,11.0,-100.00,WSW,250,9.0,12.0,57,0.00,,,-99.99,,2013-04-24 11:32:00,
2013-04-24 05:42:00,24.0,12.0,-100.00,WSW,240,7.0,11.0,58,0.00,,,-99.99,,2013-04-24 11:42:00,
2013-04-24 05:52:00,24.0,12.0,-100.00,WSW,245,9.0,12.0,59,0.00,,,-99.99,,2013-04-24 11:52:00,
2013-04-24 06:02:00,24.0,12.0,-100.00,WSW,245,9.0,11.0,58,0.00,,,-99.99,,2013-04-24 12:02:00,
2013-04-24 06:11:00,24.0,12.0,-100.00,WSW,245,11.0,12.0,58,0.00,,,-99.99,,2013-04-24 12:11:00,
2013-04-24 06:22:00,25.0,12.0,-100.00,WSW,240,11.0,16.0,57,0.00,,,-99.99,,2013-04-24 12:22:00,
2013-04-24 06:32:00,24.0,12.0,-100.00,WSW,245,12.0,13.0,58,0.00,,,-99.99,,2013-04-24 12:32:00,
2013-04-24 06:42:00,25.0,12.0,-100.00,WSW,250,13.0,15.0,58,0.00,,,-99.99,,2013-04-24 12:42:00,
2013-04-24 06:51:00,25.0,12.0,-100.00,WSW,250,14.0,18.0,57,0.00,,,-99.99,,2013-04-24 12:51:00,
2013-04-24 07:01:00,25.0,12.0,-100.00,WSW,250,17.0,20.0,57,0.00,,,-99.99,,2013-04-24 13:01:00,
2013-04-24 07:12:00,25.0,12.0,-100.00,WSW,245,16.0,21.0,57,0.00,,,-99.99,,2013-04-24 13:12:00,
2013-04-24 07:22:00,25.0,12.0,-100.00,WSW,245,17.0,24.0,57,0.00,,,-99.99,,2013-04-24 13:22:00,
2013-04-24 07:31:00,25.0,13.0,-100.00,WSW,250,21.0,25.0,58,0.00,,,-99.99,,2013-04-24 13:31:00,
2013-04-24 07:41:00,25.0,13.0,-100.00,WSW,255,19.0,24.0,59,0.00,,,-99.99,,2013-04-24 13:41:00,
2013-04-24 07:52:00,26.0,13.0,-100.00,WSW,250,19.0,23.0,59,0.00,,,-99.99,,2013-04-24 13:52:00,
2013-04-24 08:01:00,26.0,14.0,-100.00,WSW,250,19.0,24.0,59,0.00,,,-99.99,,2013-04-24 14:01:00,
2013-04-24 08:11:00,26.0,15.0,-100.00,WSW,255,24.0,30.0,60,0.00,,,-99.99,,2013-04-24 14:11:00,
2013-04-24 08:21:00,26.0,15.0,-100.00,WSW,255,21.0,26.0,61,0.00,,,-99.99,,2013-04-24 14:21:00,
2013-04-24 08:32:00,27.0,15.0,-100.00,WSW,255,19.0,24.0,60,0.00,,,-99.99,,2013-04-24 14:32:00,
2013-04-24 08:41:00,27.0,15.0,-100.00,WSW,250,21.0,27.0,60,0.00,,,-99.99,,2013-04-24 14:41:00,
2013-04-24 08:51:00,27.0,15.0,-100.00,WSW,255,20.0,27.0,60,0.00,,,-99.99,,2013-04-24 14:51:00,
2013-04-24 09:01:00,27.0,15.0,-100.00,WSW,255,20.0,28.0,60,0.00,,,-99.99,,2013-04-24 15:01:00,
2013-04-24 09:11:00,27.0,16.0,-100.00,West,260,19.0,28.0,60,0.00,,,-99.99,,2013-04-24 15:11:00,
2013-04-24 09:21:00,28.0,16.0,-100.00,WSW,255,20.0,25.0,60,0.00,,,-99.99,,2013-04-24 15:21:00,
2013-04-24 09:33:00,28.0,16.0,-100.00,West,260,20.0,25.0,60,0.00,,,-99.99,,2013-04-24 15:33:00,
2013-04-24 09:42:00,28.0,16.0,-100.00,West,260,20.0,25.0,59,0.00,,,-99.99,,2013-04-24 15:42:00,
2013-04-24 09:52:00,28.0,16.0,-100.00,WSW,250,20.0,26.0,60,0.00,,,-99.99,,2013-04-24 15:52:00,
2013-04-24 10:03:00,29.0,18.0,-100.00,West,260,20.0,26.0,62,0.00,,,-99.99,,2013-04-24 16:03:00,
2013-04-24 10:12:00,29.0,18.0,-100.00,West,260,19.0,27.0,62,0.00,,,-99.99,,2013-04-24 16:12:00,
2013-04-24 10:23:00,29.0,18.0,-100.00,West,265,22.0,27.0,63,0.00,,,-99.99,,2013-04-24 16:23:00,
2013-04-24 10:32:00,29.0,19.0,-100.00,West,260,19.0,27.0,64,0.00,,,-99.99,,2013-04-24 16:32:00,
2013-04-24 10:42:00,29.0,19.0,-100.00,West,265,22.0,27.0,64,0.00,,,-99.99,,2013-04-24 16:42:00,
2013-04-24 10:52:00,30.0,20.0,-100.00,West,270,21.0,28.0,64,0.00,,,-99.99,,2013-04-24 16:52:00,
2013-04-24 11:02:00,31.0,20.0,-100.00,West,270,18.0,25.0,64,0.00,,,-99.99,,2013-04-24 17:02:00,
2013-04-24 11:12:00,31.0,20.0,-100.00,West,265,20.0,25.0,63,0.00,,,-99.99,,2013-04-24 17:12:00,
2013-04-24 11:22:00,33.0,21.0,-100.00,West,280,15.0,21.0,60,0.00,,,-99.99,,2013-04-24 17:22:00,
2013-04-24 11:32:00,35.0,22.0,-100.00,WNW,285,12.0,19.0,59,0.00,,,-99.99,,2013-04-24 17:32:00,
2013-04-24 11:42:00,36.0,22.0,-100.00,WNW,295,12.0,19.0,58,0.00,,,-99.99,,2013-04-24 17:42:00,
2013-04-24 11:51:00,35.0,22.0,-100.00,NW,305,13.0,20.0,57,0.00,,,-99.99,,2013-04-24 17:51:00,
2013-04-24 12:02:00,35.0,21.0,-100.00,WNW,295,12.0,20.0,57,0.00,,,-99.99,,2013-04-24 18:02:00,
2013-04-24 12:12:00,36.0,22.0,-100.00,WNW,290,12.0,20.0,56,0.00,,,-99.99,,2013-04-24 18:12:00,
2013-04-24 12:21:00,35.0,20.0,-100.00,WNW,290,15.0,22.0,54,0.00,,,-99.99,,2013-04-24 18:21:00,
2013-04-24 12:33:00,36.0,21.0,-100.00,WNW,290,14.0,18.0,54,0.00,,,-99.99,,2013-04-24 18:33:00,
2013-04-24 12:42:00,36.0,21.0,-100.00,WNW,290,15.0,22.0,54,0.00,,,-99.99,,2013-04-24 18:42:00,
2013-04-24 12:52:00,36.0,21.0,-100.00,WNW,300,12.0,22.0,53,0.00,,,-99.99,,2013-04-24 18:52:00,
2013-04-24 13:02:00,37.0,22.0,-100.00,WNW,300,12.0,20.0,53,0.00,,,-99.99,,2013-04-24 19:02:00,
2013-04-24 13:11:00,37.0,22.0,-100.00,WNW,285,12.0,21.0,53,0.00,,,-99.99,,2013-04-24 19:11:00,
2013-04-24 13:21:00,36.0,21.0,-100.00,WNW,285,18.0,24.0,53,0.00,,,-99.99,,2013-04-24 19:21:00,
2013-04-24 13:32:00,37.0,22.0,-100.00,WNW,295,13.0,21.0,54,0.00,,,-99.99,,2013-04-24 19:32:00,
2013-04-24 13:42:00,37.0,22.0,-100.00,WNW,285,12.0,24.0,54,0.00,,,-99.99,,2013-04-24 19:42:00,
2013-04-24 13:52:00,38.0,22.0,-100.00,WNW,295,15.0,22.0,54,0.00,,,-99.99,,2013-04-24 19:52:00,
2013-04-24 14:02:00,38.0,23.0,-100.00,WNW,285,14.0,20.0,54,0.00,,,-99.99,,2013-04-24 20:02:00,
2013-04-24 14:11:00,37.0,22.0,-100.00,West,275,15.0,21.0,54,0.00,,,-99.99,,2013-04-24 20:11:00,
2013-04-24 14:22:00,38.0,22.0,-100.00,West,280,17.0,23.0,52,0.00,,,-99.99,,2013-04-24 20:22:00,
2013-04-24 14:32:00,37.0,23.0,-100.00,West,275,16.0,21.0,54,0.00,,,-99.99,,2013-04-24 20:32:00,
2013-04-24 14:42:00,38.0,23.0,-100.00,West,280,12.0,22.0,53,0.00,,,-99.99,,2013-04-24 20:42:00,
2013-04-24 14:51:00,38.0,23.0,-100.00,West,275,17.0,22.0,53,0.00,,,-99.99,,2013-04-24 20:51:00,
2013-04-24 15:02:00,38.0,21.0,-100.00,West,270,13.0,24.0,49,0.00,,,-99.99,,2013-04-24 21:02:00,
2013-04-24 15:11:00,39.0,22.0,-100.00,WNW,295,14.0,22.0,49,0.00,,,-99.99,,2013-04-24 21:11:00,
2013-04-24 15:21:00,38.0,21.0,-100.00,West,280,18.0,25.0,48,0.00,,,-99.99,,2013-04-24 21:21:00,
2013-04-24 15:33:00,38.0,21.0,-100.00,West,270,14.0,27.0,49,0.00,,,-99.99,,2013-04-24 21:33:00,
2013-04-24 15:42:00,38.0,20.0,-100.00,West,265,18.0,25.0,47,0.00,,,-99.99,,2013-04-24 21:42:00,
2013-04-24 15:52:00,39.0,21.0,-100.00,West,275,16.0,25.0,48,0.00,,,-99.99,,2013-04-24 21:52:00,
2013-04-24 16:03:00,39.0,20.0,-100.00,West,265,16.0,24.0,46,0.00,,,-99.99,,2013-04-24 22:03:00,
2013-04-24 16:12:00,40.0,21.0,-100.00,West,275,14.0,21.0,46,0.00,,,-99.99,,2013-04-24 22:12:00,
2013-04-24 16:22:00,40.0,21.0,-100.00,West,275,14.0,23.0,46,0.00,,,-99.99,,2013-04-24 22:22:00,
2013-04-24 16:33:00,40.0,20.0,-100.00,WNW,290,16.0,22.0,43,0.00,,,-99.99,,2013-04-24 22:33:00,
2013-04-24 16:42:00,40.0,19.0,-100.00,West,270,15.0,22.0,42,0.00,,,-99.99,,2013-04-24 22:42:00,
2013-04-24 16:52:00,40.0,19.0,-100.00,WNW,290,15.0,26.0,42,0.00,,,-99.99,,2013-04-24 22:52:00,
2013-04-24 17:02:00,40.0,19.0,-100.00,WNW,295,14.0,21.0,42,0.00,,,-99.99,,2013-04-24 23:02:00,
2013-04-24 17:12:00,39.0,18.0,-100.00,WNW,290,16.0,22.0,41,0.00,,,-99.99,,2013-04-24 23:12:00,
2013-04-24 17:21:00,39.0,18.0,-100.00,WNW,285,12.0,20.0,41,0.00,,,-99.99,,2013-04-24 23:21:00,
2013-04-24 17:32:00,39.0,18.0,-100.00,West,280,14.0,21.0,42,0.00,,,-99.99,,2013-04-24 23:32:00,
2013-04-24 17:42:00,38.0,17.0,-100.00,West,270,13.0,19.0,41,0.00,,,-99.99,,2013-04-24 23:42:00,
2013-04-24 17:51:00,39.0,18.0,-100.00,West,280,11.0,19.0,42,0.00,,,-99.99,,2013-04-24 23:51:00,
2013-04-24 18:01:00,38.0,17.0,-100.00,West,260,13.0,18.0,42,0.00,,,-99.99,,2013-04-25 00:01:00,
2013-04-24 18:12:00,38.0,17.0,-100.00,West,260,14.0,17.0,42,0.00,,,-99.99,,2013-04-25 00:12:00,
2013-04-24 18:22:00,38.0,16.0,-100.00,West,260,17.0,22.0,40,0.00,,,-99.99,,2013-04-25 00:22:00,
2013-04-24 18:32:00,38.0,16.0,-100.00,West,260,17.0,24.0,41,0.00,,,-99.99,,2013-04-25 00:32:00,
2013-04-24 18:52:00,38.0,17.0,-100.00,West,260,16.0,23.0,41,0.00,,,-99.99,,2013-04-25 00:52:00,
2013-04-24 19:01:00,37.0,16.0,-100.00,West,260,15.0,22.0,40,0.00,,,-99.99,,2013-04-25 01:01:00,
2013-04-24 19:11:00,37.0,16.0,-100.00,West,270,14.0,22.0,41,0.00,,,-99.99,,2013-04-25 01:11:00,
2013-04-24 19:22:00,37.0,16.0,-100.00,WSW,250,17.0,22.0,41,0.00,,,-99.99,,2013-04-25 01:22:00,
2013-04-24 19:32:00,37.0,16.0,-100.00,West,260,16.0,23.0,41,0.00,,,-99.99,,2013-04-25 01:32:00,
2013-04-24 19:42:00,36.0,15.0,-100.00,West,265,19.0,25.0,41,0.00,,,-99.99,,2013-04-25 01:42:00,
2013-04-24 19:52:00,36.0,15.0,-100.00,West,260,16.0,24.0,41,0.00,,,-99.99,,2013-04-25 01:52:00,
2013-04-24 20:02:00,36.0,15.0,-100.00,WSW,255,20.0,24.0,41,0.00,,,-99.99,,2013-04-25 02:02:00,
2013-04-24 20:11:00,36.0,15.0,-100.00,WSW,255,18.0,24.0,42,0.00,,,-99.99,,2013-04-25 02:11:00,
2013-04-24 20:22:00,35.0,15.0,-100.00,WSW,255,20.0,28.0,42,0.00,,,-99.99,,2013-04-25 02:22:00,
2013-04-24 20:32:00,35.0,15.0,-100.00,WSW,250,23.0,26.0,41,0.00,,,-99.99,,2013-04-25 02:32:00,
2013-04-24 20:42:00,35.0,15.0,-100.00,WSW,250,23.0,26.0,41,0.00,,,-99.99,,2013-04-25 02:42:00,
2013-04-24 20:51:00,35.0,15.0,-100.00,WSW,250,23.0,26.0,41,0.00,,,-99.99,,2013-04-25 02:51:00,
2013-04-24 21:02:00,35.0,13.0,-100.00,WSW,255,21.0,31.0,40,0.00,,,-99.99,,2013-04-25 03:02:00,
2013-04-24 21:11:00,35.0,13.0,-100.00,WSW,250,21.0,27.0,40,0.00,,,-99.99,,2013-04-25 03:11:00,
2013-04-24 21:22:00,35.0,13.0,-100.00,WSW,250,21.0,26.0,39,0.00,,,-99.99,,2013-04-25 03:22:00,
2013-04-24 21:33:00,35.0,13.0,-100.00,WSW,250,19.0,27.0,39,0.00,,,-99.99,,2013-04-25 03:33:00,
2013-04-24 21:42:00,35.0,13.0,-100.00,WSW,250,18.0,26.0,39,0.00,,,-99.99,,2013-04-25 03:42:00,
2013-04-24 21:52:00,34.0,12.0,-100.00,WSW,245,16.0,23.0,39,0.00,,,-99.99,,2013-04-25 03:52:00,
2013-04-24 22:03:00,34.0,12.0,-100.00,WSW,250,21.0,24.0,39,0.00,,,-99.99,,2013-04-25 04:03:00,
2013-04-24 22:12:00,34.0,12.0,-100.00,WSW,245,21.0,27.0,39,0.00,,,-99.99,,2013-04-25 04:12:00,
2013-04-24 22:22:00,35.0,13.0,-100.00,WSW,245,21.0,27.0,38,0.00,,,-99.99,,2013-04-25 04:22:00,
2013-04-24 22:32:00,35.0,12.0,-100.00,WSW,245,23.0,29.0,38,0.00,,,-99.99,,2013-04-25 04:32:00,
2013-04-24 22:43:00,36.0,12.0,-100.00,WSW,250,24.0,31.0,37,0.00,,,-99.99,,2013-04-25 04:43:00,
2013-04-24 22:52:00,35.0,12.0,-100.00,WSW,250,23.0,30.0,37,0.00,,,-99.99,,2013-04-25 04:52:00,
2013-04-24 23:02:00,36.0,12.0,-100.00,WSW,245,25.0,34.0,37,0.00,,,-99.99,,2013-04-25 05:02:00,
2013-04-24 23:12:00,36.0,12.0,-100.00,WSW,245,22.0,30.0,37,0.00,,,-99.99,,2013-04-25 05:12:00,
2013-04-24 23:21:00,35.0,12.0,-100.00,WSW,245,21.0,26.0,36,0.00,,,-99.99,,2013-04-25 05:21:00,
2013-04-24 23:32:00,36.0,12.0,-100.00,WSW,245,23.0,29.0,36,0.00,,,-99.99,,2013-04-25 05:32:00,
2013-04-24 23:42:00,36.0,12.0,-100.00,WSW,245,24.0,29.0,36,0.00,,,-99.99,,2013-04-25 05:42:00,
2013-04-24 23:51:00,36.0,12.0,-100.00,WSW,250,22.0,29.0,36,0.00,,,-99.99,,2013-04-25 05:51:00,